sensor_id;sensor_type;location;lat;lon;timestamp;P1;durP1;ratioP1;P2;durP2;ratioP2
59685;SDS011;45554;51.096;16.976;2022-08-21T00:04:07;13.10;;;9.00;;
59685;SDS011;45554;51.096;16.976;2022-08-21T00:06:44;12.40;;;9.20;;
59685;SDS011;45554;51.096;16.976;2022-08-21T00:09:14;11.10;;;9.00;;
59685;SDS011;45554;51.096;16.976;2022-08-21T00:11:43;13.50;;;9.00;;
59685;SDS011;45554;51.096;16.976;2022-08-21T00:14:13;10.40;;;8.30;;
59685;SDS011;45554;51.096;16.976;2022-08-21T00:16:45;11.80;;;9.10;;
59685;SDS011;45554;51.096;16.976;2022-08-21T00:19:13;11.90;;;9.50;;
59685;SDS011;45554;51.096;16.976;2022-08-21T00:21:41;13.00;;;10.70;;
59685;SDS011;45554;51.096;16.976;2022-08-21T00:24:11;13.40;;;10.30;;
59685;SDS011;45554;51.096;16.976;2022-08-21T00:26:40;13.20;;;10.20;;
59685;SDS011;45554;51.096;16.976;2022-08-21T00:29:10;16.20;;;10.10;;
59685;SDS011;45554;51.096;16.976;2022-08-21T00:34:08;12.00;;;9.90;;
59685;SDS011;45554;51.096;16.976;2022-08-21T00:36:38;11.90;;;9.00;;
59685;SDS011;45554;51.096;16.976;2022-08-21T00:39:07;12.50;;;9.60;;
59685;SDS011;45554;51.096;16.976;2022-08-21T00:41:36;11.90;;;9.50;;
59685;SDS011;45554;51.096;16.976;2022-08-21T00:44:07;10.60;;;8.50;;
59685;SDS011;45554;51.096;16.976;2022-08-21T00:46:37;11.80;;;9.10;;
59685;SDS011;45554;51.096;16.976;2022-08-21T00:49:07;10.40;;;8.40;;
59685;SDS011;45554;51.096;16.976;2022-08-21T00:51:39;10.70;;;8.70;;
59685;SDS011;45554;51.096;16.976;2022-08-21T00:54:16;11.60;;;9.10;;
59685;SDS011;45554;51.096;16.976;2022-08-21T00:56:49;11.30;;;8.50;;
59685;SDS011;45554;51.096;16.976;2022-08-21T00:59:21;11.00;;;8.80;;
59685;SDS011;45554;51.096;16.976;2022-08-21T01:01:53;12.20;;;10.00;;
59685;SDS011;45554;51.096;16.976;2022-08-21T01:04:22;14.50;;;10.00;;
59685;SDS011;45554;51.096;16.976;2022-08-21T01:09:22;11.80;;;9.40;;
59685;SDS011;45554;51.096;16.976;2022-08-21T01:11:51;12.10;;;9.20;;
59685;SDS011;45554;51.096;16.976;2022-08-21T01:14:19;11.80;;;8.90;;
59685;SDS011;45554;51.096;16.976;2022-08-21T01:16:50;13.70;;;9.10;;
59685;SDS011;45554;51.096;16.976;2022-08-21T01:19:21;11.10;;;8.80;;
59685;SDS011;45554;51.096;16.976;2022-08-21T01:21:50;12.20;;;9.30;;
59685;SDS011;45554;51.096;16.976;2022-08-21T01:24:19;17.00;;;9.00;;
59685;SDS011;45554;51.096;16.976;2022-08-21T01:26:47;10.50;;;7.90;;
59685;SDS011;45554;51.096;16.976;2022-08-21T01:29:25;10.80;;;7.80;;
59685;SDS011;45554;51.096;16.976;2022-08-21T01:32:05;10.00;;;7.90;;
59685;SDS011;45554;51.096;16.976;2022-08-21T01:34:40;9.40;;;6.60;;
59685;SDS011;45554;51.096;16.976;2022-08-21T01:37:12;11.10;;;7.70;;
59685;SDS011;45554;51.096;16.976;2022-08-21T01:39:44;9.20;;;5.90;;
59685;SDS011;45554;51.096;16.976;2022-08-21T01:42:16;8.10;;;5.70;;
59685;SDS011;45554;51.096;16.976;2022-08-21T01:44:44;10.20;;;6.00;;
59685;SDS011;45554;51.096;16.976;2022-08-21T01:49:47;8.80;;;5.80;;
59685;SDS011;45554;51.096;16.976;2022-08-21T01:52:16;7.80;;;5.70;;
59685;SDS011;45554;51.096;16.976;2022-08-21T01:55:00;7.30;;;5.00;;
59685;SDS011;45554;51.096;16.976;2022-08-21T01:57:29;9.40;;;6.10;;
59685;SDS011;45554;51.096;16.976;2022-08-21T01:59:58;6.60;;;4.90;;
59685;SDS011;45554;51.096;16.976;2022-08-21T02:02:26;6.70;;;4.40;;
59685;SDS011;45554;51.096;16.976;2022-08-21T02:04:54;7.00;;;4.40;;
59685;SDS011;45554;51.096;16.976;2022-08-21T02:07:25;5.20;;;3.80;;
59685;SDS011;45554;51.096;16.976;2022-08-21T02:09:56;5.80;;;3.40;;
59685;SDS011;45554;51.096;16.976;2022-08-21T02:12:28;4.50;;;3.00;;
59685;SDS011;45554;51.096;16.976;2022-08-21T02:15:05;4.60;;;3.00;;
59685;SDS011;45554;51.096;16.976;2022-08-21T02:17:39;9.30;;;3.50;;
59685;SDS011;45554;51.096;16.976;2022-08-21T02:20:15;5.00;;;3.10;;
59685;SDS011;45554;51.096;16.976;2022-08-21T02:22:57;4.00;;;2.80;;
59685;SDS011;45554;51.096;16.976;2022-08-21T02:25:26;4.30;;;2.80;;
59685;SDS011;45554;51.096;16.976;2022-08-21T02:27:56;7.00;;;3.30;;
59685;SDS011;45554;51.096;16.976;2022-08-21T02:30:28;4.80;;;3.30;;
59685;SDS011;45554;51.096;16.976;2022-08-21T02:33:00;7.10;;;3.00;;
59685;SDS011;45554;51.096;16.976;2022-08-21T02:35:28;4.40;;;2.90;;
59685;SDS011;45554;51.096;16.976;2022-08-21T02:38:03;4.80;;;2.60;;
59685;SDS011;45554;51.096;16.976;2022-08-21T02:40:40;3.70;;;2.80;;
59685;SDS011;45554;51.096;16.976;2022-08-21T02:43:15;4.60;;;2.70;;
59685;SDS011;45554;51.096;16.976;2022-08-21T02:45:49;4.90;;;2.30;;
59685;SDS011;45554;51.096;16.976;2022-08-21T02:48:19;4.10;;;2.30;;
59685;SDS011;45554;51.096;16.976;2022-08-21T02:50:53;4.10;;;2.80;;
59685;SDS011;45554;51.096;16.976;2022-08-21T02:53:26;5.50;;;2.90;;
59685;SDS011;45554;51.096;16.976;2022-08-21T02:58:25;5.60;;;3.00;;
59685;SDS011;45554;51.096;16.976;2022-08-21T03:00:56;4.30;;;2.90;;
59685;SDS011;45554;51.096;16.976;2022-08-21T03:03:26;4.10;;;2.80;;
59685;SDS011;45554;51.096;16.976;2022-08-21T03:05:56;4.90;;;3.10;;
59685;SDS011;45554;51.096;16.976;2022-08-21T03:08:25;4.20;;;2.70;;
59685;SDS011;45554;51.096;16.976;2022-08-21T03:10:55;4.20;;;2.80;;
59685;SDS011;45554;51.096;16.976;2022-08-21T03:13:28;4.90;;;3.10;;
59685;SDS011;45554;51.096;16.976;2022-08-21T03:15:59;4.50;;;2.80;;
59685;SDS011;45554;51.096;16.976;2022-08-21T03:18:28;5.70;;;2.70;;
59685;SDS011;45554;51.096;16.976;2022-08-21T03:20:56;5.60;;;3.40;;
59685;SDS011;45554;51.096;16.976;2022-08-21T03:23:23;4.00;;;2.90;;
59685;SDS011;45554;51.096;16.976;2022-08-21T03:25:59;5.40;;;2.80;;
59685;SDS011;45554;51.096;16.976;2022-08-21T03:28:28;3.80;;;2.70;;
59685;SDS011;45554;51.096;16.976;2022-08-21T03:30:56;6.30;;;2.70;;
59685;SDS011;45554;51.096;16.976;2022-08-21T03:33:25;4.20;;;2.70;;
59685;SDS011;45554;51.096;16.976;2022-08-21T03:35:59;5.70;;;2.80;;
59685;SDS011;45554;51.096;16.976;2022-08-21T03:38:30;4.40;;;3.00;;
59685;SDS011;45554;51.096;16.976;2022-08-21T03:41:04;5.80;;;3.20;;
59685;SDS011;45554;51.096;16.976;2022-08-21T03:43:35;4.70;;;3.00;;
59685;SDS011;45554;51.096;16.976;2022-08-21T03:46:05;5.20;;;3.10;;
59685;SDS011;45554;51.096;16.976;2022-08-21T03:48:35;4.40;;;3.00;;
59685;SDS011;45554;51.096;16.976;2022-08-21T03:51:04;5.80;;;3.10;;
59685;SDS011;45554;51.096;16.976;2022-08-21T03:53:34;5.40;;;3.10;;
59685;SDS011;45554;51.096;16.976;2022-08-21T03:56:03;4.40;;;2.50;;
59685;SDS011;45554;51.096;16.976;2022-08-21T03:58:32;5.30;;;3.30;;
59685;SDS011;45554;51.096;16.976;2022-08-21T04:01:02;3.80;;;2.80;;
59685;SDS011;45554;51.096;16.976;2022-08-21T04:03:37;4.80;;;2.90;;
59685;SDS011;45554;51.096;16.976;2022-08-21T04:06:05;3.80;;;2.50;;
59685;SDS011;45554;51.096;16.976;2022-08-21T04:08:35;4.30;;;2.70;;
59685;SDS011;45554;51.096;16.976;2022-08-21T04:11:07;5.30;;;2.80;;
59685;SDS011;45554;51.096;16.976;2022-08-21T04:13:35;4.50;;;2.50;;
59685;SDS011;45554;51.096;16.976;2022-08-21T04:16:11;4.50;;;2.50;;
59685;SDS011;45554;51.096;16.976;2022-08-21T04:18:44;4.50;;;2.40;;
59685;SDS011;45554;51.096;16.976;2022-08-21T04:21:12;5.10;;;2.60;;
59685;SDS011;45554;51.096;16.976;2022-08-21T04:23:43;3.50;;;2.30;;
59685;SDS011;45554;51.096;16.976;2022-08-21T04:26:11;4.00;;;2.30;;
59685;SDS011;45554;51.096;16.976;2022-08-21T04:28:39;3.30;;;2.10;;
59685;SDS011;45554;51.096;16.976;2022-08-21T04:31:08;2.50;;;1.90;;
59685;SDS011;45554;51.096;16.976;2022-08-21T04:33:41;2.70;;;1.90;;
59685;SDS011;45554;51.096;16.976;2022-08-21T04:36:10;2.70;;;1.90;;
59685;SDS011;45554;51.096;16.976;2022-08-21T04:38:39;3.70;;;2.30;;
59685;SDS011;45554;51.096;16.976;2022-08-21T04:41:11;3.30;;;1.80;;
59685;SDS011;45554;51.096;16.976;2022-08-21T04:46:08;5.10;;;2.20;;
59685;SDS011;45554;51.096;16.976;2022-08-21T04:48:40;2.40;;;1.50;;
59685;SDS011;45554;51.096;16.976;2022-08-21T04:51:30;2.50;;;1.50;;
59685;SDS011;45554;51.096;16.976;2022-08-21T04:54:06;2.50;;;1.80;;
59685;SDS011;45554;51.096;16.976;2022-08-21T04:59:20;2.50;;;1.80;;
59685;SDS011;45554;51.096;16.976;2022-08-21T05:04:26;3.00;;;2.10;;
59685;SDS011;45554;51.096;16.976;2022-08-21T05:06:59;2.90;;;2.00;;
59685;SDS011;45554;51.096;16.976;2022-08-21T05:09:32;2.60;;;1.60;;
59685;SDS011;45554;51.096;16.976;2022-08-21T05:12:02;2.60;;;1.80;;
59685;SDS011;45554;51.096;16.976;2022-08-21T05:14:30;3.10;;;1.80;;
59685;SDS011;45554;51.096;16.976;2022-08-21T05:16:59;2.60;;;1.80;;
59685;SDS011;45554;51.096;16.976;2022-08-21T05:19:27;2.60;;;1.80;;
59685;SDS011;45554;51.096;16.976;2022-08-21T05:21:57;2.00;;;1.50;;
59685;SDS011;45554;51.096;16.976;2022-08-21T05:24:27;2.20;;;1.50;;
59685;SDS011;45554;51.096;16.976;2022-08-21T05:26:55;2.70;;;1.70;;
59685;SDS011;45554;51.096;16.976;2022-08-21T05:29:32;3.20;;;2.00;;
59685;SDS011;45554;51.096;16.976;2022-08-21T05:32:01;2.80;;;1.90;;
59685;SDS011;45554;51.096;16.976;2022-08-21T05:34:36;2.80;;;2.10;;
59685;SDS011;45554;51.096;16.976;2022-08-21T05:37:05;3.80;;;2.20;;
59685;SDS011;45554;51.096;16.976;2022-08-21T05:39:38;2.90;;;2.00;;
59685;SDS011;45554;51.096;16.976;2022-08-21T05:44:55;2.80;;;2.10;;
59685;SDS011;45554;51.096;16.976;2022-08-21T05:47:24;3.90;;;2.10;;
59685;SDS011;45554;51.096;16.976;2022-08-21T05:52:23;3.50;;;2.10;;
59685;SDS011;45554;51.096;16.976;2022-08-21T05:54:54;3.10;;;2.30;;
59685;SDS011;45554;51.096;16.976;2022-08-21T05:57:24;2.60;;;2.10;;
59685;SDS011;45554;51.096;16.976;2022-08-21T05:59:52;3.10;;;2.10;;
59685;SDS011;45554;51.096;16.976;2022-08-21T06:02:21;3.70;;;2.20;;
59685;SDS011;45554;51.096;16.976;2022-08-21T06:04:50;6.40;;;2.50;;
59685;SDS011;45554;51.096;16.976;2022-08-21T06:07:18;4.50;;;2.30;;
59685;SDS011;45554;51.096;16.976;2022-08-21T06:09:46;3.80;;;2.30;;
59685;SDS011;45554;51.096;16.976;2022-08-21T06:12:16;7.90;;;2.40;;
59685;SDS011;45554;51.096;16.976;2022-08-21T06:14:45;5.70;;;2.40;;
59685;SDS011;45554;51.096;16.976;2022-08-21T06:17:13;3.00;;;2.10;;
59685;SDS011;45554;51.096;16.976;2022-08-21T06:19:42;7.20;;;2.90;;
59685;SDS011;45554;51.096;16.976;2022-08-21T06:22:12;8.00;;;2.60;;
59685;SDS011;45554;51.096;16.976;2022-08-21T06:24:41;7.90;;;2.80;;
59685;SDS011;45554;51.096;16.976;2022-08-21T06:27:10;9.60;;;2.60;;
59685;SDS011;45554;51.096;16.976;2022-08-21T06:29:38;9.40;;;3.10;;
59685;SDS011;45554;51.096;16.976;2022-08-21T06:32:11;13.20;;;3.10;;
59685;SDS011;45554;51.096;16.976;2022-08-21T06:34:42;5.10;;;2.40;;
59685;SDS011;45554;51.096;16.976;2022-08-21T06:37:10;7.00;;;2.70;;
59685;SDS011;45554;51.096;16.976;2022-08-21T06:39:39;9.20;;;2.50;;
59685;SDS011;45554;51.096;16.976;2022-08-21T06:42:15;8.50;;;2.60;;
59685;SDS011;45554;51.096;16.976;2022-08-21T06:44:44;10.10;;;2.80;;
59685;SDS011;45554;51.096;16.976;2022-08-21T06:47:13;20.10;;;3.70;;
59685;SDS011;45554;51.096;16.976;2022-08-21T06:49:41;10.20;;;3.70;;
59685;SDS011;45554;51.096;16.976;2022-08-21T06:52:10;7.50;;;3.30;;
59685;SDS011;45554;51.096;16.976;2022-08-21T06:54:44;19.70;;;3.60;;
59685;SDS011;45554;51.096;16.976;2022-08-21T06:57:12;28.10;;;3.30;;
59685;SDS011;45554;51.096;16.976;2022-08-21T06:59:40;15.30;;;3.40;;
59685;SDS011;45554;51.096;16.976;2022-08-21T07:02:08;7.00;;;3.20;;
59685;SDS011;45554;51.096;16.976;2022-08-21T07:04:37;8.80;;;3.30;;
59685;SDS011;45554;51.096;16.976;2022-08-21T07:07:05;16.30;;;3.50;;
59685;SDS011;45554;51.096;16.976;2022-08-21T07:09:33;9.90;;;3.30;;
59685;SDS011;45554;51.096;16.976;2022-08-21T07:12:01;10.10;;;3.40;;
59685;SDS011;45554;51.096;16.976;2022-08-21T07:16:58;10.20;;;3.60;;
59685;SDS011;45554;51.096;16.976;2022-08-21T07:19:27;12.10;;;4.10;;
59685;SDS011;45554;51.096;16.976;2022-08-21T07:24:26;10.90;;;4.30;;
59685;SDS011;45554;51.096;16.976;2022-08-21T07:26:54;13.00;;;4.30;;
59685;SDS011;45554;51.096;16.976;2022-08-21T07:29:22;7.40;;;4.10;;
59685;SDS011;45554;51.096;16.976;2022-08-21T07:31:52;9.90;;;4.20;;
59685;SDS011;45554;51.096;16.976;2022-08-21T07:34:19;9.30;;;3.70;;
59685;SDS011;45554;51.096;16.976;2022-08-21T07:36:48;9.00;;;4.00;;
59685;SDS011;45554;51.096;16.976;2022-08-21T07:39:16;9.20;;;4.10;;
59685;SDS011;45554;51.096;16.976;2022-08-21T07:41:45;10.30;;;3.80;;
59685;SDS011;45554;51.096;16.976;2022-08-21T07:44:13;11.40;;;3.60;;
59685;SDS011;45554;51.096;16.976;2022-08-21T07:46:43;10.30;;;3.20;;
59685;SDS011;45554;51.096;16.976;2022-08-21T07:49:17;10.50;;;3.60;;
59685;SDS011;45554;51.096;16.976;2022-08-21T07:51:48;7.50;;;3.40;;
59685;SDS011;45554;51.096;16.976;2022-08-21T07:54:16;7.70;;;3.10;;
59685;SDS011;45554;51.096;16.976;2022-08-21T07:56:54;6.30;;;3.40;;
59685;SDS011;45554;51.096;16.976;2022-08-21T07:59:22;9.60;;;3.00;;
59685;SDS011;45554;51.096;16.976;2022-08-21T08:04:19;14.90;;;2.90;;
59685;SDS011;45554;51.096;16.976;2022-08-21T08:06:52;9.90;;;2.70;;
59685;SDS011;45554;51.096;16.976;2022-08-21T08:09:20;9.50;;;3.10;;
59685;SDS011;45554;51.096;16.976;2022-08-21T08:11:49;7.80;;;3.00;;
59685;SDS011;45554;51.096;16.976;2022-08-21T08:14:17;6.20;;;2.60;;
59685;SDS011;45554;51.096;16.976;2022-08-21T08:16:45;7.00;;;2.50;;
59685;SDS011;45554;51.096;16.976;2022-08-21T08:19:12;7.80;;;3.00;;
59685;SDS011;45554;51.096;16.976;2022-08-21T08:21:41;8.00;;;3.40;;
59685;SDS011;45554;51.096;16.976;2022-08-21T08:24:10;7.00;;;2.80;;
59685;SDS011;45554;51.096;16.976;2022-08-21T08:26:46;4.30;;;2.30;;
59685;SDS011;45554;51.096;16.976;2022-08-21T08:29:21;5.80;;;2.60;;
59685;SDS011;45554;51.096;16.976;2022-08-21T08:31:49;5.80;;;2.60;;
59685;SDS011;45554;51.096;16.976;2022-08-21T08:34:18;6.20;;;2.70;;
59685;SDS011;45554;51.096;16.976;2022-08-21T08:36:52;5.20;;;2.50;;
59685;SDS011;45554;51.096;16.976;2022-08-21T08:39:21;5.20;;;2.40;;
59685;SDS011;45554;51.096;16.976;2022-08-21T08:41:59;5.50;;;2.50;;
59685;SDS011;45554;51.096;16.976;2022-08-21T08:45:05;5.30;;;2.60;;
59685;SDS011;45554;51.096;16.976;2022-08-21T08:47:39;5.00;;;2.30;;
59685;SDS011;45554;51.096;16.976;2022-08-21T08:50:15;4.60;;;2.60;;
59685;SDS011;45554;51.096;16.976;2022-08-21T08:52:49;6.00;;;2.70;;
59685;SDS011;45554;51.096;16.976;2022-08-21T08:55:46;6.00;;;2.80;;
59685;SDS011;45554;51.096;16.976;2022-08-21T08:58:17;7.10;;;3.20;;
59685;SDS011;45554;51.096;16.976;2022-08-21T09:00:53;6.40;;;3.40;;
59685;SDS011;45554;51.096;16.976;2022-08-21T09:03:23;5.80;;;3.30;;
59685;SDS011;45554;51.096;16.976;2022-08-21T09:09:25;7.00;;;3.50;;
59685;SDS011;45554;51.096;16.976;2022-08-21T09:11:57;7.30;;;3.00;;
59685;SDS011;45554;51.096;16.976;2022-08-21T09:14:47;6.10;;;2.80;;
59685;SDS011;45554;51.096;16.976;2022-08-21T09:17:37;5.70;;;2.60;;
59685;SDS011;45554;51.096;16.976;2022-08-21T09:26:08;5.00;;;2.50;;
59685;SDS011;45554;51.096;16.976;2022-08-21T09:28:41;6.40;;;2.70;;
59685;SDS011;45554;51.096;16.976;2022-08-21T09:31:21;4.60;;;2.10;;
59685;SDS011;45554;51.096;16.976;2022-08-21T09:33:57;4.50;;;2.30;;
59685;SDS011;45554;51.096;16.976;2022-08-21T09:36:51;4.60;;;2.20;;
59685;SDS011;45554;51.096;16.976;2022-08-21T09:41:58;5.80;;;2.40;;
59685;SDS011;45554;51.096;16.976;2022-08-21T09:44:35;5.00;;;1.90;;
59685;SDS011;45554;51.096;16.976;2022-08-21T09:47:10;4.70;;;1.70;;
59685;SDS011;45554;51.096;16.976;2022-08-21T09:49:53;5.50;;;2.00;;
59685;SDS011;45554;51.096;16.976;2022-08-21T09:52:24;4.40;;;1.50;;
59685;SDS011;45554;51.096;16.976;2022-08-21T09:54:56;4.20;;;1.70;;
59685;SDS011;45554;51.096;16.976;2022-08-21T09:57:26;4.20;;;1.70;;
59685;SDS011;45554;51.096;16.976;2022-08-21T10:02:53;4.10;;;1.70;;
59685;SDS011;45554;51.096;16.976;2022-08-21T10:05:22;3.60;;;1.60;;
59685;SDS011;45554;51.096;16.976;2022-08-21T10:07:56;4.00;;;1.50;;
59685;SDS011;45554;51.096;16.976;2022-08-21T10:10:31;4.50;;;1.90;;
59685;SDS011;45554;51.096;16.976;2022-08-21T10:21:59;5.30;;;2.00;;
59685;SDS011;45554;51.096;16.976;2022-08-21T10:24:35;3.30;;;1.70;;
59685;SDS011;45554;51.096;16.976;2022-08-21T10:30:08;4.80;;;1.80;;
59685;SDS011;45554;51.096;16.976;2022-08-21T10:35:30;4.50;;;1.80;;
59685;SDS011;45554;51.096;16.976;2022-08-21T10:38:14;5.00;;;1.90;;
59685;SDS011;45554;51.096;16.976;2022-08-21T10:44:05;5.70;;;2.00;;
59685;SDS011;45554;51.096;16.976;2022-08-21T10:55:16;6.10;;;2.00;;
59685;SDS011;45554;51.096;16.976;2022-08-21T11:00:28;4.50;;;1.90;;
59685;SDS011;45554;51.096;16.976;2022-08-21T11:03:03;7.90;;;2.20;;
59685;SDS011;45554;51.096;16.976;2022-08-21T11:08:18;4.90;;;1.80;;
59685;SDS011;45554;51.096;16.976;2022-08-21T11:13:54;4.30;;;2.00;;
59685;SDS011;45554;51.096;16.976;2022-08-21T11:16:35;5.80;;;2.10;;
59685;SDS011;45554;51.096;16.976;2022-08-21T11:19:09;5.50;;;2.30;;
59685;SDS011;45554;51.096;16.976;2022-08-21T11:21:46;6.10;;;2.00;;
59685;SDS011;45554;51.096;16.976;2022-08-21T11:24:29;5.20;;;2.10;;
59685;SDS011;45554;51.096;16.976;2022-08-21T11:27:05;6.60;;;2.20;;
59685;SDS011;45554;51.096;16.976;2022-08-21T11:29:45;5.90;;;2.40;;
59685;SDS011;45554;51.096;16.976;2022-08-21T11:32:28;4.40;;;2.40;;
59685;SDS011;45554;51.096;16.976;2022-08-21T11:35:08;5.50;;;2.20;;
59685;SDS011;45554;51.096;16.976;2022-08-21T11:40:26;5.10;;;2.20;;
59685;SDS011;45554;51.096;16.976;2022-08-21T11:46:11;6.20;;;2.30;;
59685;SDS011;45554;51.096;16.976;2022-08-21T11:57:13;4.00;;;1.90;;
59685;SDS011;45554;51.096;16.976;2022-08-21T11:59:59;4.30;;;1.90;;
59685;SDS011;45554;51.096;16.976;2022-08-21T12:02:42;5.50;;;2.20;;
59685;SDS011;45554;51.096;16.976;2022-08-21T12:05:23;6.30;;;2.60;;
59685;SDS011;45554;51.096;16.976;2022-08-21T12:16:37;4.10;;;2.10;;
59685;SDS011;45554;51.096;16.976;2022-08-21T12:19:21;3.80;;;1.90;;
59685;SDS011;45554;51.096;16.976;2022-08-21T12:30:05;5.10;;;2.10;;
59685;SDS011;45554;51.096;16.976;2022-08-21T12:32:56;4.80;;;2.20;;
59685;SDS011;45554;51.096;16.976;2022-08-21T12:35:32;7.00;;;2.70;;
59685;SDS011;45554;51.096;16.976;2022-08-21T12:38:07;6.40;;;2.50;;
59685;SDS011;45554;51.096;16.976;2022-08-21T12:40:41;4.10;;;2.10;;
59685;SDS011;45554;51.096;16.976;2022-08-21T12:43:48;4.70;;;2.30;;
59685;SDS011;45554;51.096;16.976;2022-08-21T12:46:26;6.00;;;2.70;;
59685;SDS011;45554;51.096;16.976;2022-08-21T12:49:14;4.00;;;2.10;;
59685;SDS011;45554;51.096;16.976;2022-08-21T12:54:42;5.60;;;2.40;;
59685;SDS011;45554;51.096;16.976;2022-08-21T12:57:20;5.70;;;2.40;;
59685;SDS011;45554;51.096;16.976;2022-08-21T12:59:52;7.60;;;2.70;;
59685;SDS011;45554;51.096;16.976;2022-08-21T13:02:23;5.10;;;2.40;;
59685;SDS011;45554;51.096;16.976;2022-08-21T13:04:55;5.80;;;2.40;;
59685;SDS011;45554;51.096;16.976;2022-08-21T13:07:31;5.10;;;2.40;;
59685;SDS011;45554;51.096;16.976;2022-08-21T13:12:32;5.50;;;2.30;;
59685;SDS011;45554;51.096;16.976;2022-08-21T13:15:04;5.40;;;2.20;;
59685;SDS011;45554;51.096;16.976;2022-08-21T13:17:36;6.80;;;2.50;;
59685;SDS011;45554;51.096;16.976;2022-08-21T13:20:08;4.70;;;2.30;;
59685;SDS011;45554;51.096;16.976;2022-08-21T13:22:51;6.50;;;2.20;;
59685;SDS011;45554;51.096;16.976;2022-08-21T13:25:20;4.90;;;2.50;;
59685;SDS011;45554;51.096;16.976;2022-08-21T13:28:17;6.80;;;2.60;;
59685;SDS011;45554;51.096;16.976;2022-08-21T13:30:50;5.50;;;2.50;;
59685;SDS011;45554;51.096;16.976;2022-08-21T13:33:24;5.50;;;2.50;;
59685;SDS011;45554;51.096;16.976;2022-08-21T13:36:07;5.20;;;2.30;;
59685;SDS011;45554;51.096;16.976;2022-08-21T13:38:40;6.20;;;2.30;;
59685;SDS011;45554;51.096;16.976;2022-08-21T13:44:03;6.00;;;2.50;;
59685;SDS011;45554;51.096;16.976;2022-08-21T13:46:47;5.20;;;2.10;;
59685;SDS011;45554;51.096;16.976;2022-08-21T13:49:18;6.10;;;2.50;;
59685;SDS011;45554;51.096;16.976;2022-08-21T13:51:50;7.00;;;2.30;;
59685;SDS011;45554;51.096;16.976;2022-08-21T13:54:24;4.60;;;2.40;;
59685;SDS011;45554;51.096;16.976;2022-08-21T13:56:55;5.60;;;2.60;;
59685;SDS011;45554;51.096;16.976;2022-08-21T13:59:27;6.00;;;2.80;;
59685;SDS011;45554;51.096;16.976;2022-08-21T14:01:59;5.40;;;2.50;;
59685;SDS011;45554;51.096;16.976;2022-08-21T14:04:36;4.70;;;2.70;;
59685;SDS011;45554;51.096;16.976;2022-08-21T14:07:30;5.80;;;2.60;;
59685;SDS011;45554;51.096;16.976;2022-08-21T14:10:08;6.80;;;2.60;;
59685;SDS011;45554;51.096;16.976;2022-08-21T14:12:51;6.20;;;2.40;;
59685;SDS011;45554;51.096;16.976;2022-08-21T14:15:25;5.60;;;2.70;;
59685;SDS011;45554;51.096;16.976;2022-08-21T14:18:12;4.40;;;2.40;;
59685;SDS011;45554;51.096;16.976;2022-08-21T14:20:42;6.80;;;2.60;;
59685;SDS011;45554;51.096;16.976;2022-08-21T14:23:11;6.10;;;2.50;;
59685;SDS011;45554;51.096;16.976;2022-08-21T14:25:51;5.30;;;2.50;;
59685;SDS011;45554;51.096;16.976;2022-08-21T14:28:24;4.70;;;2.70;;
59685;SDS011;45554;51.096;16.976;2022-08-21T14:30:56;6.70;;;2.50;;
59685;SDS011;45554;51.096;16.976;2022-08-21T14:33:27;5.70;;;2.80;;
59685;SDS011;45554;51.096;16.976;2022-08-21T14:35:58;5.00;;;2.50;;
59685;SDS011;45554;51.096;16.976;2022-08-21T14:38:28;5.40;;;2.60;;
59685;SDS011;45554;51.096;16.976;2022-08-21T14:41:02;5.10;;;2.50;;
59685;SDS011;45554;51.096;16.976;2022-08-21T14:43:44;5.80;;;2.50;;
59685;SDS011;45554;51.096;16.976;2022-08-21T14:46:23;4.40;;;2.50;;
59685;SDS011;45554;51.096;16.976;2022-08-21T14:48:53;5.30;;;2.70;;
59685;SDS011;45554;51.096;16.976;2022-08-21T14:51:22;4.80;;;2.40;;
59685;SDS011;45554;51.096;16.976;2022-08-21T14:53:50;5.90;;;2.60;;
59685;SDS011;45554;51.096;16.976;2022-08-21T14:56:18;4.70;;;2.70;;
59685;SDS011;45554;51.096;16.976;2022-08-21T14:58:48;5.60;;;2.80;;
59685;SDS011;45554;51.096;16.976;2022-08-21T15:01:17;5.30;;;2.30;;
59685;SDS011;45554;51.096;16.976;2022-08-21T15:03:48;4.70;;;2.70;;
59685;SDS011;45554;51.096;16.976;2022-08-21T15:06:16;6.50;;;3.00;;
59685;SDS011;45554;51.096;16.976;2022-08-21T15:08:44;4.80;;;2.40;;
59685;SDS011;45554;51.096;16.976;2022-08-21T15:11:16;5.20;;;2.60;;
59685;SDS011;45554;51.096;16.976;2022-08-21T15:14:06;5.60;;;3.00;;
59685;SDS011;45554;51.096;16.976;2022-08-21T15:16:38;5.30;;;2.90;;
59685;SDS011;45554;51.096;16.976;2022-08-21T15:21:35;8.80;;;2.90;;
59685;SDS011;45554;51.096;16.976;2022-08-21T15:24:04;6.40;;;2.40;;
59685;SDS011;45554;51.096;16.976;2022-08-21T15:26:33;7.10;;;3.30;;
59685;SDS011;45554;51.096;16.976;2022-08-21T15:29:02;6.70;;;2.90;;
59685;SDS011;45554;51.096;16.976;2022-08-21T15:31:33;4.70;;;2.90;;
59685;SDS011;45554;51.096;16.976;2022-08-21T15:34:02;6.80;;;3.30;;
59685;SDS011;45554;51.096;16.976;2022-08-21T15:36:31;5.40;;;3.10;;
59685;SDS011;45554;51.096;16.976;2022-08-21T15:38:59;6.70;;;3.10;;
59685;SDS011;45554;51.096;16.976;2022-08-21T15:41:27;7.20;;;3.50;;
59685;SDS011;45554;51.096;16.976;2022-08-21T15:43:57;6.50;;;2.90;;
59685;SDS011;45554;51.096;16.976;2022-08-21T15:46:24;6.40;;;3.40;;
59685;SDS011;45554;51.096;16.976;2022-08-21T15:48:53;7.70;;;3.30;;
59685;SDS011;45554;51.096;16.976;2022-08-21T15:51:26;6.70;;;3.00;;
59685;SDS011;45554;51.096;16.976;2022-08-21T15:53:54;6.00;;;3.30;;
59685;SDS011;45554;51.096;16.976;2022-08-21T15:56:26;7.10;;;3.40;;
59685;SDS011;45554;51.096;16.976;2022-08-21T15:59:05;6.10;;;3.20;;
59685;SDS011;45554;51.096;16.976;2022-08-21T16:01:39;5.00;;;3.00;;
59685;SDS011;45554;51.096;16.976;2022-08-21T16:04:15;8.50;;;3.30;;
59685;SDS011;45554;51.096;16.976;2022-08-21T16:06:50;6.70;;;3.10;;
59685;SDS011;45554;51.096;16.976;2022-08-21T16:09:25;6.00;;;3.20;;
59685;SDS011;45554;51.096;16.976;2022-08-21T16:11:53;5.80;;;3.60;;
59685;SDS011;45554;51.096;16.976;2022-08-21T16:14:21;6.30;;;3.50;;
59685;SDS011;45554;51.096;16.976;2022-08-21T16:16:49;6.70;;;3.00;;
59685;SDS011;45554;51.096;16.976;2022-08-21T16:19:19;6.50;;;3.30;;
59685;SDS011;45554;51.096;16.976;2022-08-21T16:21:48;5.60;;;2.90;;
59685;SDS011;45554;51.096;16.976;2022-08-21T16:24:16;8.60;;;3.30;;
59685;SDS011;45554;51.096;16.976;2022-08-21T16:26:44;4.40;;;2.80;;
59685;SDS011;45554;51.096;16.976;2022-08-21T16:29:26;4.90;;;2.90;;
59685;SDS011;45554;51.096;16.976;2022-08-21T16:31:58;7.00;;;3.00;;
59685;SDS011;45554;51.096;16.976;2022-08-21T16:34:27;5.20;;;3.00;;
59685;SDS011;45554;51.096;16.976;2022-08-21T16:36:54;4.30;;;2.50;;
59685;SDS011;45554;51.096;16.976;2022-08-21T16:39:25;4.90;;;2.50;;
59685;SDS011;45554;51.096;16.976;2022-08-21T16:41:53;4.70;;;2.70;;
59685;SDS011;45554;51.096;16.976;2022-08-21T16:44:22;5.00;;;2.60;;
59685;SDS011;45554;51.096;16.976;2022-08-21T16:46:50;5.10;;;2.80;;
59685;SDS011;45554;51.096;16.976;2022-08-21T16:49:19;4.90;;;2.60;;
59685;SDS011;45554;51.096;16.976;2022-08-21T16:51:46;3.90;;;2.40;;
59685;SDS011;45554;51.096;16.976;2022-08-21T16:54:15;5.00;;;2.40;;
59685;SDS011;45554;51.096;16.976;2022-08-21T16:56:44;6.70;;;2.50;;
59685;SDS011;45554;51.096;16.976;2022-08-21T16:59:27;4.10;;;2.20;;
59685;SDS011;45554;51.096;16.976;2022-08-21T17:01:58;3.60;;;1.90;;
59685;SDS011;45554;51.096;16.976;2022-08-21T17:04:36;4.20;;;2.00;;
59685;SDS011;45554;51.096;16.976;2022-08-21T17:07:26;3.70;;;1.90;;
59685;SDS011;45554;51.096;16.976;2022-08-21T17:10:02;3.60;;;2.00;;